Time;durP1;ratioP1;P1;durP2;ratioP2;P2;SDS_P1;SDS_P2;PMS_P1;PMS_P2;Temp;Humidity;BMP_temperature;BMP_pressure;BME280_temperature;BME280_humidity;BME280_pressure;Samples;Min_cycle;Max_cycle;Signal;HPM_P1;HPM_P2
2023/04/01 00:00:15;;;;;;;;;;;;;;;9.65;100.00;99009.94;5610068;31;35008;-67
2023/04/01 00:03:21;;;;;;;;;;;;;;;9.70;100.00;98999.59;5609167;31;34162;-67
2023/04/01 00:06:27;;;;;;;;;;;;;;;9.59;100.00;99002.78;5610000;31;34192;-67
2023/04/01 00:09:30;;;;;;;;;;;;;;;9.48;100.00;99001.50;5610011;31;34166;-68
2023/04/01 00:12:35;;;;;;;;;;;;;;;9.44;100.00;99005.53;5609542;31;34472;-68
2023/04/01 00:15:42;;;;;;;;;;;;;;;9.49;100.00;99007.59;5609978;31;34244;-68
2023/04/01 00:18:47;;;;;;;;;;;;;;;9.44;100.00;99010.81;5609170;31;35008;-66
2023/04/01 00:21:59;;;;;;;;;;;;;;;9.40;100.00;99004.28;5609171;31;34066;-67
2023/04/01 00:25:06;;;;;;;;;;;;;;;9.26;100.00;99005.22;5609832;31;34376;-67
2023/04/01 00:28:11;;;;;;;;;;;;;;;9.17;100.00;98998.44;5609003;31;35010;-68
2023/04/01 00:31:17;;;;;;;;;;;;;;;9.12;100.00;98998.19;5609768;31;34305;-67
2023/04/01 00:34:29;;;;;;;;;;;;;;;9.03;100.00;98999.34;5608999;31;34913;-67
2023/04/01 00:37:37;;;;;;;;;;;;;;;8.98;100.00;99001.72;5609627;31;34612;-67
2023/04/01 00:40:44;;;;;;;;;;;;;;;8.92;100.00;98999.84;5609745;31;34924;-67
2023/04/01 00:43:51;;;;;;;;;;;;;;;8.81;100.00;98985.31;5609534;31;34503;-68
2023/04/01 00:47:02;;;;;;;;;;;;;;;8.88;100.00;98990.66;5609582;31;34390;-67
2023/04/01 00:50:10;;;;;;;;;;;;;;;8.95;100.00;98995.00;5609769;31;34196;-67
2023/04/01 00:53:20;;;;;;;;;;;;;;;9.00;100.00;98994.44;5609707;31;34226;-67
2023/04/01 00:56:30;;;;;;;;;;;;;;;8.94;100.00;98984.63;5609716;31;34267;-67
2023/04/01 00:59:42;;;;;;;;;;;;;;;8.98;100.00;98986.69;5609647;31;35100;-67
2023/04/01 01:02:50;;;;;;;;;;;;;;;9.12;100.00;98984.97;5609589;31;34373;-68
2023/04/01 01:06:21;;;;;;;;;;;;;;;9.12;100.00;98977.84;5609561;31;34864;-67
2023/04/01 01:09:39;;;;;;;;;;;;;;;9.31;100.00;98976.34;5609486;31;34822;-67
2023/04/01 01:12:49;;;;;;;;;;;;;;;9.38;100.00;98984.34;5609265;31;34917;-67
2023/04/01 01:16:04;;;;;;;;;;;;;;;9.44;100.00;98978.25;5608541;31;34563;-67
2023/04/01 01:19:23;;;;;;;;;;;;;;;9.42;100.00;98983.75;5609296;31;34853;-67
2023/04/01 01:22:48;;;;;;;;;;;;;;;9.54;100.00;98981.34;5609317;31;34309;-68
2023/04/01 01:26:05;;;;;;;;;;;;;;;9.53;100.00;98980.56;5609323;31;34817;-67
2023/04/01 01:29:30;;;;;;;;;;;;;;;9.56;100.00;98979.34;5609128;31;34229;-68
2023/04/01 01:32:57;;;;;;;;;;;;;;;9.56;100.00;98984.63;5609200;31;34285;-68
2023/04/01 01:36:07;;;;;;;;;;;;;;;9.56;100.00;98974.88;5609046;31;34074;-67
2023/04/01 01:39:17;;;;;;;;;;;;;;;9.57;100.00;98975.69;5608956;31;34182;-68
2023/04/01 01:42:28;;;;;;;;;;;;;;;9.63;100.00;98972.28;5608309;31;34165;-67
2023/04/01 01:45:38;;;;;;;;;;;;;;;9.58;100.00;98977.34;5608206;31;35352;-67
2023/04/01 01:48:46;;;;;;;;;;;;;;;9.58;100.00;98978.13;5609197;31;34842;-67
2023/04/01 01:51:54;;;;;;;;;;;;;;;9.52;100.00;98980.75;5608777;31;34299;-67
2023/04/01 01:55:03;;;;;;;;;;;;;;;9.44;100.00;98975.62;5608061;31;34833;-67
2023/04/01 01:58:14;;;;;;;;;;;;;;;9.33;100.00;98974.31;5608629;31;34238;-68
2023/04/01 02:01:25;;;;;;;;;;;;;;;9.32;100.00;98975.34;5608731;31;34664;-70
2023/04/01 02:04:32;;;;;;;;;;;;;;;9.28;100.00;98981.22;5607857;31;34969;-67
2023/04/01 02:07:39;;;;;;;;;;;;;;;9.21;100.00;98972.41;5608632;31;34183;-68
2023/04/01 02:10:59;;;;;;;;;;;;;;;9.18;100.00;98967.50;5608581;31;34307;-67
2023/04/01 02:14:11;;;;;;;;;;;;;;;9.25;100.00;98965.69;5607231;31;33948;-67
2023/04/01 02:17:26;;;;;;;;;;;;;;;9.31;100.00;98959.63;5608702;31;34813;-67
2023/04/01 02:20:36;;;;;;;;;;;;;;;9.53;100.00;98967.31;5608197;31;34334;-67
2023/04/01 02:23:45;;;;;;;;;;;;;;;9.77;100.00;98960.72;5608239;31;34247;-67
2023/04/01 02:26:53;;;;;;;;;;;;;;;9.84;100.00;98956.25;5608183;31;34299;-67
2023/04/01 02:30:03;;;;;;;;;;;;;;;9.90;100.00;98959.94;5608192;31;34149;-67
2023/04/01 02:33:11;;;;;;;;;;;;;;;9.81;100.00;98954.00;5608086;31;33891;-67
2023/04/01 02:36:22;;;;;;;;;;;;;;;9.92;100.00;98953.44;5608124;31;34837;-67
2023/04/01 02:39:31;;;;;;;;;;;;;;;9.88;100.00;98951.38;5607889;31;34245;-67
2023/04/01 02:42:38;;;;;;;;;;;;;;;9.73;100.00;98951.50;5607911;31;34670;-68
2023/04/01 02:45:49;;;;;;;;;;;;;;;9.74;100.00;98952.34;5610341;31;33898;-67
2023/04/01 02:48:56;;;;;;;;;;;;;;;9.82;100.00;98949.53;5609932;31;34248;-66
2023/04/01 02:52:07;;;;;;;;;;;;;;;9.66;100.00;98939.28;5610608;31;35786;-67
2023/04/01 02:55:15;;;;;;;;;;;;;;;9.57;100.00;98944.75;5610645;31;34365;-66
2023/04/01 02:58:25;;;;;;;;;;;;;;;9.54;100.00;98941.66;5610560;31;34706;-69
2023/04/01 03:01:36;;;;;;;;;;;;;;;9.54;100.00;98949.59;5610639;31;34465;-68
2023/04/01 03:04:46;;;;;;;;;;;;;;;9.60;100.00;98954.94;5610616;31;34566;-66
2023/04/01 03:07:53;;;;;;;;;;;;;;;9.50;100.00;98946.53;5610593;31;34431;-66
2023/04/01 03:11:01;;;;;;;;;;;;;;;9.44;100.00;98959.75;5610708;31;34292;-67
2023/04/01 03:14:10;;;;;;;;;;;;;;;9.36;100.00;98952.75;5610379;31;34820;-67
2023/04/01 03:17:17;;;;;;;;;;;;;;;9.34;100.00;98956.63;5610580;31;34270;-67
2023/04/01 03:20:22;;;;;;;;;;;;;;;9.26;100.00;98948.81;5610450;31;34422;-67
2023/04/01 03:23:34;;;;;;;;;;;;;;;9.25;100.00;98945.34;5610195;31;34476;-67
2023/04/01 03:26:42;;;;;;;;;;;;;;;9.15;100.00;98943.03;5610328;31;34889;-67
2023/04/01 03:29:50;;;;;;;;;;;;;;;9.18;100.00;98941.84;5610394;31;34151;-67
2023/04/01 03:32:58;;;;;;;;;;;;;;;8.92;100.00;98957.53;5610780;31;34876;-67
2023/04/01 03:36:08;;;;;;;;;;;;;;;8.99;100.00;98961.06;5610390;31;34294;-67
2023/04/01 03:39:18;;;;;;;;;;;;;;;8.98;100.00;98957.59;5610210;31;34856;-68
2023/04/01 03:42:27;;;;;;;;;;;;;;;9.04;100.00;98964.75;5610193;31;34205;-67
2023/04/01 03:45:46;;;;;;;;;;;;;;;8.99;100.00;98971.63;5610157;31;34131;-67
2023/04/01 03:48:58;;;;;;;;;;;;;;;8.98;100.00;98965.53;5609402;31;34299;-67
2023/04/01 03:52:08;;;;;;;;;;;;;;;8.87;100.00;98970.50;5610546;31;34365;-68
2023/04/01 03:55:20;;;;;;;;;;;;;;;8.86;100.00;98982.13;5609065;31;35100;-67
2023/04/01 03:58:26;;;;;;;;;;;;;;;8.84;100.00;98979.66;5610188;31;34212;-68
2023/04/01 04:01:40;;;;;;;;;;;;;;;8.72;100.00;98981.16;5610142;31;34631;-67
2023/04/01 04:04:50;;;;;;;;;;;;;;;8.58;100.00;98982.03;5610102;31;35048;-67
2023/04/01 04:07:56;;;;;;;;;;;;;;;8.42;100.00;98985.78;5570224;31;1238490;-67
2023/04/01 04:11:05;;;;;;;;;;;;;;;8.41;100.00;98986.78;5609684;31;34349;-67
2023/04/01 04:14:15;;;;;;;;;;;;;;;8.44;100.00;98980.28;5609010;31;34652;-67
2023/04/01 04:17:22;;;;;;;;;;;;;;;8.38;100.00;98981.84;5609520;31;34565;-67
2023/04/01 04:20:28;;;;;;;;;;;;;;;8.35;100.00;98986.69;5609792;31;34893;-67
2023/04/01 04:23:38;;;;;;;;;;;;;;;8.58;100.00;98982.88;5609813;31;34966;-68
2023/04/01 04:26:45;;;;;;;;;;;;;;;8.52;100.00;98977.53;5609768;31;35124;-67
2023/04/01 04:29:54;;;;;;;;;;;;;;;8.66;100.00;98995.97;5609078;31;34795;-67
2023/04/01 04:33:02;;;;;;;;;;;;;;;8.59;100.00;98988.97;5610176;31;34256;-67
2023/04/01 04:36:11;;;;;;;;;;;;;;;8.46;100.00;98987.03;5609819;31;34938;-68
2023/04/01 04:39:18;;;;;;;;;;;;;;;8.60;100.00;98985.34;5609855;31;34413;-67
2023/04/01 04:42:26;;;;;;;;;;;;;;;8.58;100.00;98980.22;5609263;31;34227;-67
2023/04/01 04:45:35;;;;;;;;;;;;;;;8.61;100.00;98981.69;5609038;31;34226;-68
2023/04/01 04:48:43;;;;;;;;;;;;;;;8.59;100.00;98979.22;5608868;31;34819;-67
2023/04/01 04:51:52;;;;;;;;;;;;;;;8.68;100.00;98977.25;5609593;31;34318;-68
2023/04/01 04:55:00;;;;;;;;;;;;;;;8.76;100.00;98971.87;5609412;31;34988;-67
2023/04/01 04:58:10;;;;;;;;;;;;;;;8.83;100.00;98975.38;5609564;31;33938;-67
2023/04/01 05:01:20;;;;;;;;;;;;;;;8.95;100.00;98968.56;5609565;31;34820;-69
2023/04/01 05:04:27;;;;;;;;;;;;;;;8.98;100.00;98973.47;5608788;31;34182;-67
2023/04/01 05:07:36;;;;;;;;;;;;;;;9.03;100.00;98973.72;5609061;31;34283;-66
2023/04/01 05:10:47;;;;;;;;;;;;;;;9.10;100.00;98973.75;5609532;31;34215;-67
2023/04/01 05:13:54;;;;;;;;;;;;;;;9.09;100.00;98967.66;5609272;31;33822;-69
2023/04/01 05:16:59;;;;;;;;;;;;;;;9.13;100.00;98982.13;5609395;31;34358;-68
2023/04/01 05:20:12;;;;;;;;;;;;;;;9.25;100.00;98981.56;5609259;31;34272;-67
2023/04/01 05:23:21;;;;;;;;;;;;;;;9.39;100.00;98975.38;5608486;31;34946;-66
2023/04/01 05:26:30;;;;;;;;;;;;;;;9.44;100.00;98979.06;5609243;31;34855;-67
2023/04/01 05:29:39;;;;;;;;;;;;;;;9.52;100.00;98975.47;5609151;31;35004;-67
2023/04/01 05:32:48;;;;;;;;;;;;;;;9.60;100.00;98985.88;5608942;31;34115;-66
2023/04/01 05:35:54;;;;;;;;;;;;;;;9.72;100.00;98986.16;5608080;31;34808;-67
2023/04/01 05:39:04;;;;;;;;;;;;;;;9.71;100.00;98995.09;5608726;31;34350;-68
2023/04/01 05:42:13;;;;;;;;;;;;;;;9.77;100.00;98989.84;5607364;31;33125;-68
2023/04/01 05:45:21;;;;;;;;;;;;;;;9.89;100.00;98990.91;5609145;31;33857;-67
2023/04/01 05:48:31;;;;;;;;;;;;;;;10.01;100.00;98988.53;5609135;31;34321;-67
2023/04/01 05:51:40;;;;;;;;;;;;;;;10.12;100.00;98995.87;5607940;31;34801;-67
2023/04/01 05:54:47;;;;;;;;;;;;;;;10.24;100.00;99001.47;5608171;31;34282;-67
2023/04/01 05:57:55;;;;;;;;;;;;;;;10.29;100.00;98994.56;5608361;31;34762;-67
2023/04/01 06:01:07;;;;;;;;;;;;;;;10.35;100.00;99003.56;5608215;31;34443;-68
2023/04/01 06:04:21;;;;;;;;;;;;;;;10.44;100.00;99000.53;5608469;31;34811;-67
2023/04/01 06:07:29;;;;;;;;;;;;;;;10.55;100.00;98996.47;5607488;31;34333;-68
2023/04/01 06:10:44;;;;;;;;;;;;;;;10.70;100.00;98999.75;5595141;31;34913;-68
2023/04/01 06:13:50;;;;;;;;;;;;;;;10.73;100.00;99002.00;5607913;31;34481;-67
2023/04/01 06:17:06;;;;;;;;;;;;;;;10.89;100.00;99006.91;5607097;31;33339;-68
2023/04/01 06:20:26;;;;;;;;;;;;;;;10.90;100.00;99002.41;5609184;31;34271;-68
2023/04/01 06:23:40;;;;;;;;;;;;;;;10.92;100.00;98988.94;5610811;31;34021;-67
2023/04/01 06:26:53;;;;;;;;;;;;;;;10.69;100.00;98997.31;5610687;31;34137;-68
2023/04/01 06:30:05;;;;;;;;;;;;;;;10.66;100.00;99000.34;5609659;31;33233;-68
2023/04/01 06:33:20;;;;;;;;;;;;;;;10.68;100.00;98993.84;5610471;31;34599;-68
2023/04/01 06:36:46;;;;;;;;;;;;;;;11.05;100.00;99002.22;5610647;31;34282;-68
2023/04/01 06:40:03;;;;;;;;;;;;;;;10.95;100.00;99007.09;5609809;31;33882;-67
2023/04/01 06:43:26;;;;;;;;;;;;;;;11.14;100.00;99008.94;5609390;31;32831;-67
2023/04/01 06:46:44;;;;;;;;;;;;;;;11.32;100.00;99004.69;5597543;31;32837;-67
2023/04/01 06:50:15;;;;;;;;;;;;;;;11.50;100.00;99008.53;5609916;31;34231;-67
2023/04/01 06:53:31;;;;;;;;;;;;;;;11.55;100.00;99006.88;5609657;31;34232;-66
2023/04/01 06:56:55;;;;;;;;;;;;;;;11.62;100.00;99012.16;5610645;31;34133;-67
2023/04/01 07:00:03;;;;;;;;;;;;;;;11.69;100.00;99013.78;5609578;31;34300;-66
2023/04/01 07:03:21;;;;;;;;;;;;;;;11.87;100.00;99015.00;5610270;31;34235;-66
2023/04/01 07:06:35;;;;;;;;;;;;;;;11.99;100.00;99008.03;5609534;31;34120;-66
2023/04/01 07:09:50;;;;;;;;;;;;;;;12.12;100.00;99011.44;5610214;31;34276;-67
2023/04/01 07:13:05;;;;;;;;;;;;;;;12.24;100.00;99008.94;5610041;31;34221;-67
2023/04/01 07:16:27;;;;;;;;;;;;;;;12.50;100.00;99016.78;5610266;31;34324;-68
2023/04/01 07:19:41;;;;;;;;;;;;;;;13.35;88.77;99025.22;5610120;31;34380;-69
2023/04/01 07:22:53;;;;;;;;;;;;;;;13.48;86.76;99011.78;5610218;31;34967;-69
2023/04/01 07:26:15;;;;;;;;;;;;;;;13.69;86.55;99014.03;5609399;31;34310;-68
2023/04/01 07:29:31;;;;;;;;;;;;;;;13.41;86.13;99005.66;5609370;31;33941;-69
2023/04/01 07:32:42;;;;;;;;;;;;;;;13.80;86.43;99018.59;5609904;31;34425;-68
2023/04/01 07:35:56;;;;;;;;;;;;;;;14.16;77.45;99020.47;5610136;31;34924;-68
2023/04/01 07:39:16;;;;;;;;;;;;;;;14.15;76.56;99016.16;5610047;31;34560;-69
2023/04/01 07:42:31;;;;;;;;;;;;;;;14.60;76.11;99029.97;5610082;31;34301;-69
2023/04/01 07:45:45;;;;;;;;;;;;;;;15.13;73.61;99026.53;5596750;31;33324;-68
2023/04/01 07:48:53;;;;;;;;;;;;;;;14.78;74.65;99029.91;5610060;31;34585;-68
2023/04/01 07:52:03;;;;;;;;;;;;;;;15.17;70.26;99025.00;5609992;31;32753;-67
2023/04/01 07:55:11;;;;;;;;;;;;;;;14.58;73.57;99021.38;5609379;31;34329;-68
2023/04/01 07:58:35;;;;;;;;;;;;;;;15.17;68.34;99022.34;5609826;31;34336;-68
2023/04/01 08:01:45;;;;;;;;;;;;;;;15.08;70.82;99029.06;5609894;31;34276;-68
2023/04/01 08:04:52;;;;;;;;;;;;;;;14.76;70.54;99031.19;5609317;31;34324;-68
2023/04/01 08:08:01;;;;;;;;;;;;;;;14.02;73.83;99023.50;5596261;31;33794;-67
2023/04/01 08:11:14;;;;;;;;;;;;;;;13.81;75.54;99036.22;5609812;31;34559;-67
2023/04/01 08:14:47;;;;;;;;;;;;;;;13.93;76.40;99029.16;5598357;31;33666;-68
2023/04/01 08:18:09;;;;;;;;;;;;;;;14.10;75.80;99025.87;5609755;31;34293;-68
2023/04/01 08:21:37;;;;;;;;;;;;;;;14.12;75.45;99031.81;5609488;31;35473;-67
2023/04/01 08:24:48;;;;;;;;;;;;;;;14.03;78.60;99033.13;5572225;31;33582;-67
2023/04/01 08:28:10;;;;;;;;;;;;;;;14.27;76.19;99033.06;5609069;31;33905;-68
2023/04/01 08:31:24;;;;;;;;;;;;;;;14.96;73.42;99034.38;5609003;31;33082;-68
2023/04/01 08:34:34;;;;;;;;;;;;;;;14.86;70.53;99042.16;5609698;31;34418;-69
2023/04/01 08:37:45;;;;;;;;;;;;;;;14.77;69.84;99033.63;5609159;31;34302;-67
2023/04/01 08:40:58;;;;;;;;;;;;;;;14.82;68.60;99034.78;5608691;31;33328;-68
2023/04/01 08:44:11;;;;;;;;;;;;;;;14.27;73.20;99033.06;5609425;31;34543;-68
2023/04/01 08:47:24;;;;;;;;;;;;;;;14.68;71.48;99020.81;5608713;31;34301;-68
2023/04/01 08:50:36;;;;;;;;;;;;;;;14.42;79.15;99023.88;5608887;31;34478;-68
2023/04/01 08:53:47;;;;;;;;;;;;;;;14.65;71.71;99031.97;5609696;31;34319;-68
2023/04/01 08:57:14;;;;;;;;;;;;;;;14.13;77.10;99031.59;5609637;31;34290;-68
2023/04/01 09:00:24;;;;;;;;;;;;;;;13.87;78.51;99038.03;5608688;31;34371;-67
2023/04/01 09:03:43;;;;;;;;;;;;;;;14.47;73.72;99042.69;5609534;31;34208;-68
2023/04/01 09:06:50;;;;;;;;;;;;;;;14.15;73.55;99047.34;5608757;31;32551;-68
2023/04/01 09:10:01;;;;;;;;;;;;;;;13.75;75.34;99033.63;5609407;31;34930;-67
2023/04/01 09:13:16;;;;;;;;;;;;;;;13.94;77.85;99038.75;5609143;31;35546;-67
2023/04/01 09:16:35;;;;;;;;;;;;;;;14.10;75.96;99036.53;5609245;31;34753;-68
2023/04/01 09:20:01;;;;;;;;;;;;;;;13.90;75.82;99026.91;5595194;31;33151;-68
2023/04/01 09:23:24;;;;;;;;;;;;;;;13.77;76.17;99026.22;5609264;31;34295;-67
2023/04/01 09:26:39;;;;;;;;;;;;;;;13.83;78.00;99020.03;5608371;31;34283;-68
2023/04/01 09:29:54;;;;;;;;;;;;;;;14.37;75.26;99029.06;5608355;31;34980;-67
2023/04/01 09:33:04;;;;;;;;;;;;;;;14.35;73.40;99031.91;5609142;31;34355;-68
2023/04/01 09:36:31;;;;;;;;;;;;;;;14.31;73.80;99023.56;5609141;31;34324;-67
2023/04/01 09:40:00;;;;;;;;;;;;;;;13.56;77.63;99023.97;5609115;31;34051;-69
2023/04/01 09:43:11;;;;;;;;;;;;;;;13.37;80.78;99025.78;5609033;31;34542;-67
2023/04/01 09:46:21;;;;;;;;;;;;;;;13.12;83.33;99035.66;5609223;31;34510;-67
2023/04/01 09:49:35;;;;;;;;;;;;;;;12.92;85.49;99027.78;5608106;31;35065;-68
2023/04/01 09:52:50;;;;;;;;;;;;;;;12.55;87.03;99030.25;5608216;31;34160;-67
2023/04/01 09:56:17;;;;;;;;;;;;;;;12.85;87.08;99040.31;5608401;31;34243;-67
2023/04/01 09:59:25;;;;;;;;;;;;;;;12.34;90.22;99037.75;5608093;31;34333;-67
2023/04/01 10:02:40;;;;;;;;;;;;;;;12.58;89.31;99042.31;5608617;31;34854;-68
2023/04/01 10:06:05;;;;;;;;;;;;;;;12.70;90.01;99032.63;5608573;31;33992;-68
2023/04/01 10:09:11;;;;;;;;;;;;;;;12.64;92.07;99034.28;5594750;31;34704;-68
2023/04/01 10:12:16;;;;;;;;;;;;;;;13.00;88.86;99033.66;5607520;31;34373;-68
2023/04/01 10:15:44;;;;;;;;;;;;;;;13.30;87.07;99033.03;5607711;31;34324;-68
2023/04/01 10:19:07;;;;;;;;;;;;;;;13.62;80.51;99033.75;5608155;31;34273;-68
2023/04/01 10:22:37;;;;;;;;;;;;;;;13.40;83.79;99039.50;5607302;31;34450;-69
2023/04/01 10:26:09;;;;;;;;;;;;;;;13.38;83.39;99043.41;5594966;31;33390;-66
2023/04/01 10:29:34;;;;;;;;;;;;;;;12.95;87.58;99046.78;5581612;31;32442;-67
2023/04/01 10:33:01;;;;;;;;;;;;;;;12.69;87.44;99035.47;5607381;31;34444;-67
2023/04/01 10:36:14;;;;;;;;;;;;;;;12.71;88.45;99038.75;5608039;31;34851;-67
2023/04/01 10:39:33;;;;;;;;;;;;;;;12.66;90.63;99035.91;5607442;31;34246;-68
2023/04/01 10:42:47;;;;;;;;;;;;;;;12.87;88.71;99039.06;5607793;31;33272;-68
2023/04/01 10:46:06;;;;;;;;;;;;;;;12.75;88.66;99048.75;5607136;31;34963;-67
2023/04/01 10:49:32;;;;;;;;;;;;;;;12.83;89.86;99042.38;5607498;31;34229;-67
2023/04/01 10:52:42;;;;;;;;;;;;;;;13.06;86.71;99037.31;5606197;31;33756;-67
2023/04/01 10:56:07;;;;;;;;;;;;;;;13.41;84.68;99041.13;5606947;31;34461;-67
2023/04/01 10:59:32;;;;;;;;;;;;;;;14.15;78.43;99042.00;5607480;31;34211;-66
2023/04/01 11:03:20;;;;;;;;;;;;;;;14.30;75.21;99035.25;5606730;31;35467;-67
2023/04/01 11:06:52;;;;;;;;;;;;;;;13.98;78.58;99041.00;5517778;32;34509;-68
2023/04/01 11:10:31;;;;;;;;;;;;;;;14.27;77.20;99030.38;5530543;32;34207;-68
2023/04/01 11:13:48;;;;;;;;;;;;;;;14.03;77.53;99025.97;5519950;32;34111;-68
2023/04/01 11:16:56;;;;;;;;;;;;;;;14.71;75.16;99017.72;5504868;32;34850;-68
2023/04/01 11:20:18;;;;;;;;;;;;;;;15.55;70.32;99020.06;5517191;32;32309;-67
2023/04/01 11:23:37;;;;;;;;;;;;;;;18.14;59.22;99025.50;5517757;32;34518;-66
2023/04/01 11:26:52;;;;;;;;;;;;;;;18.24;54.54;99036.38;5530306;32;34862;-68
2023/04/01 11:30:00;;;;;;;;;;;;;;;16.59;59.37;99026.28;5517780;32;35165;-68
2023/04/01 11:33:10;;;;;;;;;;;;;;;15.44;62.96;99020.06;5517818;32;34153;-67
2023/04/01 11:36:25;;;;;;;;;;;;;;;14.02;66.90;99024.31;5541308;31;34288;-70
2023/04/01 11:39:45;;;;;;;;;;;;;;;13.37;74.83;99034.59;5610182;31;34295;-68
2023/04/01 11:43:01;;;;;;;;;;;;;;;13.02;78.94;99030.78;5609983;31;34223;-68
2023/04/01 11:46:25;;;;;;;;;;;;;;;13.00;79.58;99028.31;5609229;31;33277;-67
2023/04/01 11:49:47;;;;;;;;;;;;;;;12.85;79.88;99041.13;5610179;31;35222;-68
2023/04/01 11:53:13;;;;;;;;;;;;;;;12.73;80.88;99045.47;5610085;31;34021;-68
2023/04/01 11:56:50;;;;;;;;;;;;;;;12.70;79.87;99047.75;5609716;31;34257;-67
2023/04/01 12:00:03;;;;;;;;;;;;;;;12.81;80.73;99045.25;5609291;31;33882;-67
2023/04/01 12:03:22;;;;;;;;;;;;;;;12.89;82.72;99042.31;5609735;31;35006;-68
2023/04/01 12:06:27;;;;;;;;;;;;;;;12.99;81.39;99033.84;5609686;31;34198;-68
2023/04/01 12:09:44;;;;;;;;;;;;;;;13.03;79.49;99037.72;5609742;31;34476;-68
2023/04/01 12:13:07;;;;;;;;;;;;;;;13.47;76.25;99034.94;5609716;31;34295;-67
2023/04/01 12:16:12;;;;;;;;;;;;;;;14.02;71.19;99035.00;5608923;31;34301;-67
2023/04/01 12:19:22;;;;;;;;;;;;;;;14.35;67.19;99030.06;5609795;31;34328;-67
2023/04/01 12:22:51;;;;;;;;;;;;;;;14.25;66.42;99032.44;5609037;31;34266;-68
2023/04/01 12:26:13;;;;;;;;;;;;;;;14.22;68.03;99040.09;5609730;31;34322;-68
2023/04/01 12:29:32;;;;;;;;;;;;;;;14.01;68.98;99037.88;5609916;31;34724;-69
2023/04/01 12:32:57;;;;;;;;;;;;;;;14.00;70.29;99041.56;5609784;31;33007;-69
2023/04/01 12:36:08;;;;;;;;;;;;;;;13.83;71.87;99031.50;5609531;31;35126;-67
2023/04/01 12:39:23;;;;;;;;;;;;;;;14.21;68.50;99038.47;5609600;31;35026;-69
2023/04/01 12:42:44;;;;;;;;;;;;;;;14.00;70.85;99045.06;5609345;31;35021;-68
2023/04/01 12:46:02;;;;;;;;;;;;;;;14.29;69.74;99041.63;5608895;31;34230;-68
2023/04/01 12:49:09;;;;;;;;;;;;;;;15.45;65.35;99043.03;5609662;31;34199;-68
2023/04/01 12:52:36;;;;;;;;;;;;;;;16.69;59.72;99036.38;5608737;31;34372;-69
2023/04/01 12:55:44;;;;;;;;;;;;;;;19.15;51.17;99047.31;5608824;31;34301;-68
2023/04/01 12:59:04;;;;;;;;;;;;;;;17.44;53.07;99031.47;5608603;31;34598;-68
2023/04/01 13:02:10;;;;;;;;;;;;;;;16.68;55.02;99032.06;5609292;31;34241;-68
2023/04/01 13:05:32;;;;;;;;;;;;;;;16.06;57.55;99035.38;5609368;31;34295;-68
2023/04/01 13:09:01;;;;;;;;;;;;;;;17.88;53.00;99020.88;5609326;31;34655;-68
2023/04/01 13:12:17;;;;;;;;;;;;;;;20.40;46.18;99027.69;5608268;31;34275;-67
2023/04/01 13:15:42;;;;;;;;;;;;;;;22.03;40.57;99022.06;5608583;31;34211;-68
2023/04/01 13:19:00;;;;;;;;;;;;;;;21.66;41.63;99021.59;5609191;31;33923;-68
2023/04/01 13:22:09;;;;;;;;;;;;;;;20.77;42.20;99016.72;5608402;31;34306;-68
2023/04/01 13:25:35;;;;;;;;;;;;;;;23.36;37.87;99014.81;5609192;31;34419;-68
2023/04/01 13:28:57;;;;;;;;;;;;;;;23.14;37.39;99028.78;5608017;31;33916;-68
2023/04/01 13:32:07;;;;;;;;;;;;;;;22.27;39.41;99024.19;5608499;31;34665;-67
2023/04/01 13:35:15;;;;;;;;;;;;;;;20.76;40.67;99026.72;5608769;31;34417;-68
2023/04/01 13:38:37;;;;;;;;;;;;;;;21.62;40.02;99020.53;5609147;31;34323;-69
2023/04/01 13:41:47;;;;;;;;;;;;;;;21.65;39.40;99023.50;5608112;31;33550;-68
2023/04/01 13:45:13;;;;;;;;;;;;;;;22.45;37.29;99029.75;5595064;31;33584;-68
2023/04/01 13:48:25;;;;;;;;;;;;;;;22.89;36.07;99029.00;5608278;31;34167;-68
2023/04/01 13:51:52;;;;;;;;;;;;;;;22.90;37.44;99044.09;5608981;31;34825;-69
2023/04/01 13:54:58;;;;;;;;;;;;;;;22.57;37.41;99037.53;5608031;31;34357;-68
2023/04/01 13:58:16;;;;;;;;;;;;;;;22.44;37.16;99022.72;5607704;31;34384;-67
2023/04/01 14:01:29;;;;;;;;;;;;;;;23.14;36.83;99025.31;5607975;31;34333;-68
2023/04/01 14:04:40;;;;;;;;;;;;;;;24.17;35.17;99028.38;5608129;31;34388;-68
2023/04/01 14:08:06;;;;;;;;;;;;;;;24.21;34.32;99040.25;5607719;31;35333;-68
2023/04/01 14:11:30;;;;;;;;;;;;;;;22.50;37.04;99027.03;5608515;31;34227;-70
2023/04/01 14:14:56;;;;;;;;;;;;;;;23.19;35.79;99034.16;5607385;31;35007;-68
2023/04/01 14:18:20;;;;;;;;;;;;;;;19.98;43.28;99029.62;5608244;31;34931;-69
2023/04/01 14:21:43;;;;;;;;;;;;;;;18.80;45.73;99035.16;5608151;31;34618;-68
2023/04/01 14:25:08;;;;;;;;;;;;;;;18.40;45.57;99030.12;5607481;31;34167;-68
2023/04/01 14:28:29;;;;;;;;;;;;;;;17.91;46.91;99023.06;5607501;31;34202;-68
2023/04/01 14:31:45;;;;;;;;;;;;;;;19.27;45.57;99021.84;5608164;31;34156;-68
2023/04/01 14:34:51;;;;;;;;;;;;;;;18.32;46.63;99021.69;5607843;31;34890;-69
2023/04/01 14:38:19;;;;;;;;;;;;;;;18.21;46.56;99012.69;5607985;31;34135;-67
2023/04/01 14:41:51;;;;;;;;;;;;;;;16.97;49.53;99014.91;5610083;31;34949;-69
2023/04/01 14:45:02;;;;;;;;;;;;;;;16.12;52.17;99016.75;5609716;31;34232;-68
2023/04/01 14:48:28;;;;;;;;;;;;;;;16.14;52.26;99007.44;5609228;31;34501;-68
2023/04/01 14:51:38;;;;;;;;;;;;;;;16.85;51.07;99014.16;5601743;31;34422;-68
2023/04/01 14:54:48;;;;;;;;;;;;;;;17.08;49.14;99011.34;5610452;31;34191;-67
2023/04/01 14:58:00;;;;;;;;;;;;;;;16.26;51.68;99016.25;5609857;31;34214;-67
2023/04/01 15:01:07;;;;;;;;;;;;;;;15.57;54.29;99006.47;5610410;31;34957;-67
2023/04/01 15:04:42;;;;;;;;;;;;;;;15.16;56.83;99013.50;5610700;31;34575;-67
2023/04/01 15:07:54;;;;;;;;;;;;;;;14.71;59.48;99005.19;5610469;31;34441;-67
2023/04/01 15:11:20;;;;;;;;;;;;;;;14.42;61.55;99029.22;5609079;31;34178;-68
2023/04/01 15:14:38;;;;;;;;;;;;;;;14.11;63.65;99017.66;5610280;31;34228;-68
2023/04/01 15:17:48;;;;;;;;;;;;;;;14.23;64.50;99023.06;5610403;31;33302;-68
2023/04/01 15:21:17;;;;;;;;;;;;;;;14.42;64.04;99022.03;5609406;31;34328;-68
2023/04/01 15:24:31;;;;;;;;;;;;;;;14.57;63.41;99019.72;5610309;31;34301;-69
2023/04/01 15:27:52;;;;;;;;;;;;;;;14.51;63.04;99015.31;5610260;31;34350;-68
2023/04/01 15:31:03;;;;;;;;;;;;;;;14.47;62.69;99035.50;5609917;31;34278;-68
2023/04/01 15:34:20;;;;;;;;;;;;;;;14.44;60.87;99016.44;5609629;31;34933;-68
2023/04/01 15:37:43;;;;;;;;;;;;;;;14.71;60.41;99029.22;5597054;31;33221;-68
2023/04/01 15:41:01;;;;;;;;;;;;;;;14.82;61.07;99035.59;5610097;31;34952;-69
2023/04/01 15:44:31;;;;;;;;;;;;;;;14.99;58.35;99025.09;5610166;31;34185;-68
2023/04/01 15:47:42;;;;;;;;;;;;;;;14.77;57.64;99025.63;5609107;31;33079;-68
2023/04/01 15:50:59;;;;;;;;;;;;;;;14.68;57.34;99029.66;5610261;31;34788;-68
2023/04/01 15:54:22;;;;;;;;;;;;;;;14.62;57.99;99041.22;5609427;31;35023;-69
2023/04/01 15:57:52;;;;;;;;;;;;;;;14.56;56.72;99031.47;5596697;31;35497;-69
2023/04/01 16:01:16;;;;;;;;;;;;;;;14.53;58.05;99039.91;5609677;31;34208;-69
2023/04/01 16:04:46;;;;;;;;;;;;;;;14.68;57.27;99039.50;5609067;31;33357;-66
2023/04/01 16:08:04;;;;;;;;;;;;;;;14.69;54.43;99038.47;5609797;31;35007;-67
2023/04/01 16:11:26;;;;;;;;;;;;;;;14.72;54.66;99043.34;5609759;31;32658;-67
2023/04/01 16:14:59;;;;;;;;;;;;;;;14.69;53.20;99038.47;5609016;31;32788;-68
2023/04/01 16:18:26;;;;;;;;;;;;;;;14.73;53.30;99055.66;5609129;31;34856;-68
2023/04/01 16:21:51;;;;;;;;;;;;;;;14.59;52.67;99052.38;5610198;31;34204;-66
2023/04/01 16:25:41;;;;;;;;;;;;;;;14.52;52.98;99057.00;5609099;31;34229;-67
2023/04/01 16:29:07;;;;;;;;;;;;;;;14.63;52.68;99063.41;5529306;32;34564;-69
2023/04/01 16:32:21;;;;;;;;;;;;;;;14.45;54.29;99052.75;5514667;32;34210;-67
2023/04/01 16:35:36;;;;;;;;;;;;;;;14.40;54.27;99061.44;5510261;32;34709;-68
2023/04/01 16:38:51;;;;;;;;;;;;;;;14.56;53.67;99055.50;5510267;32;34675;-68
2023/04/01 16:42:14;;;;;;;;;;;;;;;14.57;54.66;99061.66;5510408;32;34901;-67
2023/04/01 16:45:25;;;;;;;;;;;;;;;14.45;55.54;99069.59;5497382;32;34221;-68
2023/04/01 16:48:52;;;;;;;;;;;;;;;14.37;56.87;99072.56;5510428;32;34205;-68
2023/04/01 16:52:12;;;;;;;;;;;;;;;14.35;58.39;99066.59;5510277;32;34722;-67